Time;durP1;ratioP1;P1;durP2;ratioP2;P2;SDS_P1;SDS_P2;PMS_P1;PMS_P2;Temp;Humidity;BMP_temperature;BMP_pressure;BME280_temperature;BME280_humidity;BME280_pressure;Samples;Min_cycle;Max_cycle;Signal;HPM_P1;HPM_P2
2021/10/31 00:02:27;;;;;;;1.57;1.00;;;12.30;98.20;;;;;;5001985;28;20901;-74
2021/10/31 00:04:54;;;;;;;1.60;1.00;;;12.20;98.20;;;;;;5000644;28;20464;-74
2021/10/31 00:07:20;;;;;;;1.53;1.00;;;12.20;98.20;;;;;;5005876;28;20467;-74
2021/10/31 00:09:47;;;;;;;1.50;1.10;;;12.20;98.20;;;;;;5007645;28;20471;-74
2021/10/31 00:12:14;;;;;;;1.60;1.10;;;12.20;98.20;;;;;;5008214;28;20816;-74
2021/10/31 00:14:41;;;;;;;1.57;1.10;;;12.10;98.20;;;;;;5006245;28;20484;-72
2021/10/31 00:17:08;;;;;;;1.57;1.10;;;12.10;98.20;;;;;;5006876;28;20487;-73
2021/10/31 00:19:36;;;;;;;1.57;1.10;;;12.10;98.20;;;;;;5008098;28;21085;-72
2021/10/31 00:22:04;;;;;;;1.53;1.10;;;12.10;98.20;;;;;;5005098;28;20461;-74
2021/10/31 00:24:30;;;;;;;1.57;1.10;;;12.00;98.20;;;;;;5008468;28;20452;-74
2021/10/31 00:26:57;;;;;;;1.53;1.10;;;12.00;98.20;;;;;;5008105;28;20460;-75
2021/10/31 00:29:24;;;;;;;1.53;1.10;;;12.00;98.20;;;;;;5005798;28;20487;-74
2021/10/31 00:31:51;;;;;;;1.57;1.03;;;12.00;98.20;;;;;;5004611;28;20864;-72
2021/10/31 00:34:18;;;;;;;1.53;1.10;;;12.00;98.20;;;;;;5006972;28;20488;-74
2021/10/31 00:36:46;;;;;;;1.53;1.10;;;12.00;98.20;;;;;;5006447;28;20818;-74
2021/10/31 00:39:13;;;;;;;1.60;1.10;;;11.90;98.20;;;;;;5007855;28;20484;-74
2021/10/31 00:41:40;;;;;;;1.57;1.00;;;11.90;98.20;;;;;;5006764;28;20471;-74
2021/10/31 00:44:07;;;;;;;1.53;1.10;;;11.90;98.20;;;;;;5005651;28;20478;-75
2021/10/31 00:46:33;;;;;;;1.60;1.10;;;11.90;98.20;;;;;;5007338;28;20468;-74
2021/10/31 00:49:00;;;;;;;1.60;1.10;;;11.90;98.20;;;;;;5011507;28;20965;-74
2021/10/31 00:51:28;;;;;;;1.57;1.10;;;11.90;98.20;;;;;;5013648;28;20990;-75
2021/10/31 00:53:57;;;;;;;1.53;1.00;;;11.80;98.20;;;;;;5013745;28;20480;-75
2021/10/31 00:56:25;;;;;;;1.60;1.10;;;11.80;98.20;;;;;;5013298;28;20467;-75
2021/10/31 00:58:52;;;;;;;1.57;1.10;;;11.80;98.20;;;;;;5010092;28;20859;-74
2021/10/31 01:01:20;;;;;;;1.60;1.10;;;11.80;98.20;;;;;;5007450;28;20467;-74
2021/10/31 01:03:47;;;;;;;1.50;1.10;;;11.70;98.20;;;;;;5011984;28;20499;-74
2021/10/31 01:07:03;;;;;;;1.60;1.10;;;11.70;98.20;;;;;;5011555;28;20468;-74
2021/10/31 01:09:39;;;;;;;1.60;1.10;;;11.70;98.20;;;;;;5006247;28;20833;-73
2021/10/31 01:12:24;;;;;;;1.57;1.10;;;11.70;98.20;;;;;;5007120;28;20952;-74
2021/10/31 01:15:09;;;;;;;1.60;1.03;;;11.70;98.20;;;;;;5011386;28;20488;-74
2021/10/31 01:17:49;;;;;;;1.57;1.10;;;11.70;98.20;;;;;;5009637;28;20506;-74
2021/10/31 01:20:24;;;;;;;1.50;1.10;;;11.70;98.20;;;;;;5010985;28;20468;-74
2021/10/31 01:23:20;;;;;;;1.53;1.00;;;11.60;98.20;;;;;;5010540;28;20455;-74
2021/10/31 01:26:11;;;;;;;1.60;1.10;;;11.60;98.20;;;;;;5011298;28;20816;-74
2021/10/31 01:28:53;;;;;;;1.57;1.10;;;11.60;98.20;;;;;;5010764;28;20488;-74
2021/10/31 01:31:28;;;;;;;1.60;1.20;;;11.60;98.20;;;;;;5005820;28;20495;-74
2021/10/31 01:34:00;;;;;;;1.60;1.13;;;11.60;98.20;;;;;;5010780;28;20487;-74
2021/10/31 01:36:36;;;;;;;1.60;1.10;;;11.60;98.20;;;;;;5010898;28;20499;-74
2021/10/31 01:39:14;;;;;;;1.57;1.10;;;11.60;98.20;;;;;;5006169;28;20499;-74
2021/10/31 01:41:50;;;;;;;1.57;1.10;;;11.60;98.20;;;;;;5010249;28;20456;-74
2021/10/31 01:44:29;;;;;;;1.60;1.10;;;11.60;98.20;;;;;;5010754;28;20987;-74
2021/10/31 01:47:02;;;;;;;1.57;1.10;;;11.50;98.20;;;;;;5006413;28;20468;-73
2021/10/31 01:49:44;;;;;;;1.60;1.20;;;11.50;98.20;;;;;;5008828;28;20510;-73
2021/10/31 01:52:16;;;;;;;1.60;1.20;;;11.50;98.20;;;;;;5010627;28;20849;-73
2021/10/31 01:54:50;;;;;;;1.57;1.10;;;11.50;98.20;;;;;;5008274;28;20999;-74
2021/10/31 01:57:21;;;;;;;1.60;1.10;;;11.50;98.20;;;;;;5005151;28;20472;-73
2021/10/31 01:59:53;;;;;;;1.60;1.10;;;11.40;98.20;;;;;;5009151;28;20830;-73
2021/10/31 02:02:21;;;;;;;1.60;1.10;;;11.50;98.20;;;;;;5009582;28;20470;-73
2021/10/31 02:04:50;;;;;;;1.60;1.20;;;11.40;98.20;;;;;;5009060;28;20942;-73
2021/10/31 02:07:20;;;;;;;1.60;1.10;;;11.40;98.20;;;;;;5006692;28;20990;-73
2021/10/31 02:09:49;;;;;;;1.60;1.10;;;11.40;98.20;;;;;;5006372;28;20455;-74
2021/10/31 02:12:20;;;;;;;1.60;1.20;;;11.40;98.20;;;;;;5009101;28;20461;-74
2021/10/31 02:14:48;;;;;;;1.60;1.10;;;11.30;98.20;;;;;;5010328;28;20534;-74
2021/10/31 02:17:16;;;;;;;1.60;1.20;;;11.30;98.20;;;;;;5007768;28;20544;-74
2021/10/31 02:19:46;;;;;;;1.60;1.10;;;11.30;98.20;;;;;;5010057;28;20471;-74
2021/10/31 02:22:19;;;;;;;1.60;1.10;;;11.30;98.20;;;;;;5008814;28;21013;-74
2021/10/31 02:24:47;;;;;;;1.60;1.03;;;11.20;98.20;;;;;;5007919;28;20469;-74
2021/10/31 02:27:16;;;;;;;1.60;1.10;;;11.10;98.20;;;;;;5008641;28;20464;-74
2021/10/31 02:29:48;;;;;;;1.60;1.10;;;11.10;98.20;;;;;;5009741;28;20464;-73
2021/10/31 02:32:15;;;;;;;1.60;1.10;;;11.10;98.20;;;;;;5010041;28;20476;-73
2021/10/31 02:34:41;;;;;;;1.60;1.20;;;11.10;98.20;;;;;;5008684;28;20483;-73
2021/10/31 02:37:09;;;;;;;1.60;1.10;;;11.10;98.20;;;;;;5008423;28;20471;-73
2021/10/31 02:39:36;;;;;;;1.60;1.10;;;11.00;98.20;;;;;;5009756;28;20464;-73
2021/10/31 02:42:05;;;;;;;1.60;1.20;;;11.00;98.20;;;;;;5008535;28;20475;-73
2021/10/31 02:44:32;;;;;;;1.60;1.20;;;10.90;98.20;;;;;;5004887;28;20751;-73
2021/10/31 02:46:59;;;;;;;1.60;1.10;;;10.90;98.20;;;;;;4999094;28;20469;-73
2021/10/31 02:49:27;;;;;;;1.60;1.10;;;10.90;98.20;;;;;;5007366;28;20518;-73
2021/10/31 02:52:00;;;;;;;1.60;1.20;;;10.90;98.20;;;;;;4994738;28;20468;-74
2021/10/31 02:54:36;;;;;;;1.60;1.20;;;10.90;98.20;;;;;;5000497;28;20833;-74
2021/10/31 02:57:14;;;;;;;1.60;1.10;;;10.90;98.20;;;;;;5007259;28;20499;-74
2021/10/31 02:59:48;;;;;;;1.60;1.20;;;10.80;98.20;;;;;;5008055;28;20468;-74
2021/10/31 03:02:15;;;;;;;1.60;1.20;;;10.80;98.20;;;;;;5008647;28;20582;-74
2021/10/31 03:04:43;;;;;;;1.57;1.10;;;10.80;98.20;;;;;;5006914;28;20456;-74
2021/10/31 03:07:10;;;;;;;1.57;1.10;;;10.80;98.20;;;;;;5001186;28;20970;-74
2021/10/31 03:09:38;;;;;;;1.60;1.10;;;10.70;98.20;;;;;;5008559;28;20487;-74
2021/10/31 03:12:08;;;;;;;1.60;1.10;;;10.70;98.20;;;;;;5008112;28;20806;-74
2021/10/31 03:14:36;;;;;;;1.60;1.20;;;10.70;98.20;;;;;;5005188;28;20484;-74
2021/10/31 03:17:03;;;;;;;1.60;1.20;;;10.70;98.20;;;;;;5002584;28;21050;-74
2021/10/31 03:19:31;;;;;;;1.60;1.10;;;10.70;98.20;;;;;;5007090;28;20480;-74
2021/10/31 03:21:58;;;;;;;1.60;1.10;;;10.70;98.20;;;;;;5006024;28;20471;-74
2021/10/31 03:24:25;;;;;;;1.60;1.10;;;10.70;98.20;;;;;;5007584;28;20625;-74
2021/10/31 03:26:52;;;;;;;1.60;1.17;;;10.60;98.20;;;;;;5006498;28;20972;-75
2021/10/31 03:29:22;;;;;;;1.60;1.20;;;10.60;98.20;;;;;;5005964;28;20807;-74
2021/10/31 03:31:48;;;;;;;1.60;1.20;;;10.60;98.20;;;;;;5008890;28;20559;-75
2021/10/31 03:34:15;;;;;;;1.60;1.20;;;10.60;98.20;;;;;;5008626;28;20487;-75
2021/10/31 03:36:42;;;;;;;1.60;1.20;;;10.60;98.20;;;;;;5001961;28;20865;-72
2021/10/31 03:39:09;;;;;;;1.60;1.10;;;10.50;98.20;;;;;;5007959;28;20488;-75
2021/10/31 03:41:35;;;;;;;1.60;1.20;;;10.50;98.20;;;;;;5005845;28;20759;-75
2021/10/31 03:44:03;;;;;;;1.60;1.20;;;10.60;98.20;;;;;;5008326;28;20963;-74
2021/10/31 03:46:31;;;;;;;1.60;1.20;;;10.60;98.20;;;;;;5006971;28;20500;-75
2021/10/31 03:48:58;;;;;;;1.60;1.20;;;10.60;98.20;;;;;;5007161;28;20656;-72
2021/10/31 03:51:25;;;;;;;1.60;1.20;;;10.60;98.20;;;;;;5007640;28;20456;-72
2021/10/31 03:53:52;;;;;;;1.60;1.10;;;10.60;98.20;;;;;;5004769;28;20464;-72
2021/10/31 03:56:18;;;;;;;1.60;1.20;;;10.60;98.20;;;;;;5006811;28;20483;-71
2021/10/31 03:58:45;;;;;;;1.60;1.20;;;10.70;98.20;;;;;;5006834;28;20475;-72
2021/10/31 04:01:12;;;;;;;1.60;1.20;;;10.70;98.20;;;;;;5003229;28;20468;-74
2021/10/31 04:03:40;;;;;;;1.60;1.10;;;10.70;98.20;;;;;;5006480;28;21095;-75
2021/10/31 04:06:07;;;;;;;1.60;1.20;;;10.70;98.20;;;;;;5006520;28;20506;-73
2021/10/31 04:08:34;;;;;;;1.60;1.13;;;10.70;98.20;;;;;;5006485;28;20480;-73
2021/10/31 04:11:01;;;;;;;1.60;1.20;;;10.70;98.20;;;;;;5006106;28;20468;-75
2021/10/31 04:13:27;;;;;;;1.60;1.17;;;10.70;98.20;;;;;;5006990;28;20495;-74
2021/10/31 04:15:54;;;;;;;1.60;1.20;;;10.70;98.20;;;;;;5007762;28;20484;-74
2021/10/31 04:18:21;;;;;;;1.60;1.20;;;10.70;98.20;;;;;;5006376;28;20499;-74
2021/10/31 04:20:49;;;;;;;1.60;1.20;;;10.70;98.20;;;;;;5007562;28;20471;-75
2021/10/31 04:23:16;;;;;;;1.60;1.20;;;10.70;98.20;;;;;;5003746;28;20471;-72
2021/10/31 04:25:43;;;;;;;1.60;1.20;;;10.80;98.20;;;;;;5006869;28;20503;-74
2021/10/31 04:28:10;;;;;;;1.57;1.10;;;10.80;98.20;;;;;;5001776;28;20484;-74
2021/10/31 04:30:37;;;;;;;1.60;1.20;;;10.80;98.20;;;;;;5007279;28;20462;-75
2021/10/31 04:33:03;;;;;;;1.60;1.13;;;10.90;98.20;;;;;;5007599;28;20452;-74
2021/10/31 04:35:30;;;;;;;1.60;1.20;;;10.80;98.20;;;;;;5005374;28;20484;-72
2021/10/31 04:38:07;;;;;;;1.60;1.20;;;10.90;98.20;;;;;;5005922;28;20488;-72
2021/10/31 04:40:35;;;;;;;1.60;1.10;;;10.90;98.20;;;;;;5007104;28;20970;-71
2021/10/31 04:43:02;;;;;;;1.60;1.20;;;10.90;98.20;;;;;;5007528;28;20917;-72
2021/10/31 04:45:29;;;;;;;1.67;1.40;;;10.90;98.20;;;;;;5007278;28;20461;-73
2021/10/31 04:47:56;;;;;;;1.60;1.20;;;10.80;98.20;;;;;;5005028;28;20488;-71
2021/10/31 04:50:22;;;;;;;1.60;1.20;;;10.80;98.20;;;;;;5007680;28;20878;-72
2021/10/31 04:52:49;;;;;;;1.60;1.20;;;10.80;98.20;;;;;;5003652;28;20476;-72
2021/10/31 04:55:17;;;;;;;1.60;1.20;;;10.80;98.20;;;;;;5006106;28;20515;-71
2021/10/31 04:57:44;;;;;;;1.60;1.30;;;10.80;98.20;;;;;;5003652;28;20484;-72
2021/10/31 05:00:12;;;;;;;1.60;1.20;;;10.80;98.20;;;;;;5001440;28;20472;-71
2021/10/31 05:02:39;;;;;;;1.60;1.20;;;10.80;98.20;;;;;;5007352;28;20473;-72
2021/10/31 05:05:06;;;;;;;1.60;1.10;;;10.80;98.20;;;;;;5005833;28;20467;-72
2021/10/31 05:07:33;;;;;;;1.60;1.20;;;10.80;98.20;;;;;;5005467;28;20549;-72
2021/10/31 05:10:00;;;;;;;1.60;1.20;;;10.80;98.20;;;;;;5003102;28;20475;-72
2021/10/31 05:12:28;;;;;;;1.60;1.20;;;10.80;98.20;;;;;;5006378;28;20845;-72
2021/10/31 05:14:55;;;;;;;1.60;1.20;;;10.80;98.20;;;;;;5007599;28;20480;-72
2021/10/31 05:17:22;;;;;;;1.60;1.20;;;10.70;98.20;;;;;;5003760;28;20850;-72
2021/10/31 05:19:49;;;;;;;1.60;1.20;;;10.70;98.20;;;;;;5001015;28;20951;-73
2021/10/31 05:22:16;;;;;;;1.60;1.10;;;10.70;98.20;;;;;;5007661;28;20456;-72
2021/10/31 05:24:43;;;;;;;1.60;1.20;;;10.70;98.20;;;;;;5006799;28;20465;-72
2021/10/31 05:27:09;;;;;;;1.60;1.20;;;10.70;98.20;;;;;;5005219;28;20471;-71
2021/10/31 05:29:37;;;;;;;1.60;1.20;;;10.70;98.20;;;;;;5002746;28;20556;-73
2021/10/31 05:32:05;;;;;;;1.60;1.10;;;10.80;98.20;;;;;;5006711;28;20835;-73
2021/10/31 05:34:32;;;;;;;1.60;1.20;;;10.70;98.20;;;;;;5008885;28;20467;-73
2021/10/31 05:36:58;;;;;;;1.60;1.20;;;10.80;98.20;;;;;;5009030;28;20472;-72
2021/10/31 05:39:25;;;;;;;1.60;1.20;;;10.70;98.20;;;;;;5006266;28;20483;-72
2021/10/31 05:41:52;;;;;;;1.60;1.20;;;10.80;98.20;;;;;;5003980;28;20471;-73
2021/10/31 05:44:19;;;;;;;1.60;1.20;;;10.80;98.20;;;;;;5007643;28;20471;-72
2021/10/31 05:46:47;;;;;;;1.60;1.20;;;10.80;98.20;;;;;;5007794;28;20460;-72
2021/10/31 05:49:14;;;;;;;1.60;1.20;;;10.70;98.20;;;;;;5009322;28;20492;-73
2021/10/31 05:51:41;;;;;;;1.60;1.20;;;10.70;98.20;;;;;;5009947;28;20470;-73
2021/10/31 05:54:09;;;;;;;1.60;1.20;;;10.70;98.20;;;;;;5005477;28;20951;-72
2021/10/31 05:56:37;;;;;;;1.60;1.20;;;10.70;98.20;;;;;;5009662;28;20591;-73
2021/10/31 05:59:04;;;;;;;1.60;1.20;;;10.70;98.20;;;;;;5009695;28;21029;-72
2021/10/31 06:01:31;;;;;;;1.60;1.10;;;10.80;98.20;;;;;;5008566;28;20474;-72
2021/10/31 06:04:00;;;;;;;1.60;1.10;;;10.80;98.20;;;;;;5010338;28;20468;-73
2021/10/31 06:06:27;;;;;;;1.60;1.10;;;10.80;98.20;;;;;;5010113;28;20789;-73
2021/10/31 06:08:54;;;;;;;1.60;1.20;;;10.90;98.20;;;;;;5006620;28;20488;-72
2021/10/31 06:11:21;;;;;;;1.60;1.20;;;10.90;98.20;;;;;;5009212;28;20553;-73
2021/10/31 06:13:48;;;;;;;1.60;1.20;;;10.90;98.20;;;;;;5009947;28;21087;-73
2021/10/31 06:16:14;;;;;;;1.60;1.20;;;11.00;98.20;;;;;;5009945;28;21167;-73
2021/10/31 06:18:41;;;;;;;1.60;1.10;;;10.90;98.20;;;;;;5009180;28;20982;-73
2021/10/31 06:21:10;;;;;;;1.60;1.20;;;10.90;98.20;;;;;;5009749;28;20852;-73
2021/10/31 06:23:37;;;;;;;1.60;1.20;;;10.90;98.20;;;;;;5008259;28;20531;-73
2021/10/31 06:26:05;;;;;;;1.60;1.20;;;10.90;98.20;;;;;;5007342;28;20487;-72
2021/10/31 06:28:32;;;;;;;1.60;1.10;;;10.90;98.20;;;;;;5007869;28;20484;-73
2021/10/31 06:31:00;;;;;;;1.60;1.13;;;10.90;98.20;;;;;;5005553;28;20467;-73
2021/10/31 06:33:26;;;;;;;1.53;1.10;;;11.00;98.20;;;;;;5007676;28;20460;-74
2021/10/31 06:35:54;;;;;;;1.60;1.30;;;10.90;98.20;;;;;;5010211;28;20875;-74
2021/10/31 06:38:22;;;;;;;1.60;1.20;;;10.90;98.20;;;;;;5009843;28;21003;-74
2021/10/31 06:40:49;;;;;;;1.60;1.20;;;10.90;98.20;;;;;;5001540;28;20472;-75
2021/10/31 06:43:16;;;;;;;1.60;1.20;;;10.90;98.20;;;;;;5008961;28;20464;-74
2021/10/31 06:45:42;;;;;;;1.60;1.10;;;10.90;98.20;;;;;;5007433;28;20475;-74
2021/10/31 06:48:09;;;;;;;1.60;1.20;;;10.90;98.20;;;;;;5002135;28;20500;-71
2021/10/31 06:50:36;;;;;;;1.60;1.20;;;11.00;98.20;;;;;;5004793;28;20456;-73
2021/10/31 06:53:03;;;;;;;1.57;1.20;;;11.00;98.20;;;;;;5006399;28;20479;-74
2021/10/31 06:55:32;;;;;;;1.60;1.10;;;11.00;98.20;;;;;;5002430;28;20611;-73
2021/10/31 06:57:59;;;;;;;1.60;1.20;;;11.00;98.20;;;;;;5005149;28;20544;-73
2021/10/31 07:00:26;;;;;;;1.60;1.10;;;11.00;98.20;;;;;;5008192;28;20983;-75
2021/10/31 07:02:53;;;;;;;1.60;1.10;;;11.10;98.20;;;;;;5008851;28;20557;-73
2021/10/31 07:05:20;;;;;;;1.60;1.27;;;11.10;98.20;;;;;;5006862;28;21009;-75
2021/10/31 07:07:47;;;;;;;1.60;1.20;;;11.20;98.20;;;;;;5006029;28;20499;-72
2021/10/31 07:10:14;;;;;;;1.60;1.10;;;11.20;98.20;;;;;;5002820;28;20468;-73
2021/10/31 07:12:42;;;;;;;1.60;1.20;;;11.30;98.20;;;;;;4994764;28;20933;-73
2021/10/31 07:15:10;;;;;;;1.60;1.10;;;11.40;98.20;;;;;;4999895;28;20687;-73
2021/10/31 07:17:38;;;;;;;1.60;1.20;;;11.40;98.20;;;;;;5003798;28;21017;-72
2021/10/31 07:20:06;;;;;;;1.60;1.20;;;11.50;98.20;;;;;;5002382;28;20674;-72
2021/10/31 07:22:34;;;;;;;1.60;1.20;;;11.50;98.20;;;;;;5005476;28;20464;-73
2021/10/31 07:25:01;;;;;;;1.60;1.20;;;11.50;98.20;;;;;;4998909;28;20566;-74
2021/10/31 07:27:27;;;;;;;1.60;1.20;;;11.60;98.20;;;;;;5002283;28;20488;-75
2021/10/31 07:29:56;;;;;;;1.60;1.20;;;11.60;98.20;;;;;;5003469;28;20835;-74
2021/10/31 07:32:23;;;;;;;1.60;1.10;;;11.60;98.20;;;;;;5005620;28;20470;-73
2021/10/31 07:34:50;;;;;;;1.60;1.10;;;11.70;98.20;;;;;;5005352;28;20555;-74
2021/10/31 07:37:16;;;;;;;1.60;1.00;;;11.70;98.20;;;;;;4995374;28;20488;-74
2021/10/31 07:39:44;;;;;;;1.60;1.10;;;11.80;98.20;;;;;;5000413;28;20457;-74
2021/10/31 07:42:13;;;;;;;1.60;1.20;;;11.80;98.20;;;;;;5003514;28;20468;-74
2021/10/31 07:44:40;;;;;;;1.60;1.10;;;11.80;98.20;;;;;;5005017;28;20591;-73
2021/10/31 07:47:08;;;;;;;1.60;1.10;;;11.80;98.20;;;;;;5004006;28;20507;-74
2021/10/31 07:49:35;;;;;;;1.60;1.03;;;11.90;98.20;;;;;;4997818;28;20464;-73
2021/10/31 07:52:01;;;;;;;1.60;1.10;;;11.90;98.20;;;;;;4997951;28;20468;-75
2021/10/31 07:54:28;;;;;;;1.60;1.10;;;11.90;98.20;;;;;;5002394;28;20922;-74
2021/10/31 07:56:58;;;;;;;1.60;1.10;;;11.80;98.20;;;;;;4998021;28;20480;-75
2021/10/31 07:59:26;;;;;;;1.60;1.13;;;11.80;98.20;;;;;;5004014;28;21074;-75
2021/10/31 08:01:53;;;;;;;1.60;1.20;;;11.80;98.20;;;;;;5001304;28;20846;-75
2021/10/31 08:04:22;;;;;;;3.23;3.03;;;11.80;98.20;;;;;;5002237;28;20464;-74
2021/10/31 08:06:49;;;;;;;1.60;1.30;;;11.80;98.20;;;;;;5002435;28;20468;-74
2021/10/31 08:09:16;;;;;;;1.80;1.60;;;11.90;98.20;;;;;;5004316;28;20492;-75
2021/10/31 08:11:43;;;;;;;1.53;1.00;;;11.90;98.20;;;;;;5001920;28;20468;-74
2021/10/31 08:14:10;;;;;;;1.60;1.10;;;12.00;98.20;;;;;;5004660;28;20464;-72
2021/10/31 08:16:38;;;;;;;1.60;1.10;;;12.10;98.20;;;;;;5004318;28;20527;-74
2021/10/31 08:19:05;;;;;;;1.57;1.00;;;12.20;98.20;;;;;;5003906;28;20492;-73
2021/10/31 08:21:34;;;;;;;1.60;1.10;;;12.30;98.20;;;;;;5004183;28;20467;-73
2021/10/31 08:24:01;;;;;;;1.53;1.10;;;12.30;98.20;;;;;;5004571;28;20464;-73
2021/10/31 08:26:28;;;;;;;1.57;1.00;;;12.40;98.20;;;;;;4997205;28;20770;-73
2021/10/31 08:28:55;;;;;;;1.57;1.10;;;12.50;98.20;;;;;;5002590;28;20503;-73
2021/10/31 08:31:26;;;;;;;1.60;1.10;;;12.60;98.20;;;;;;4996141;28;20466;-72
2021/10/31 08:33:57;;;;;;;1.53;1.10;;;12.70;98.20;;;;;;5001105;28;20461;-72
2021/10/31 08:36:25;;;;;;;1.60;1.10;;;12.70;98.20;;;;;;5000875;28;20484;-71
2021/10/31 08:38:53;;;;;;;1.53;1.10;;;12.90;98.20;;;;;;4999498;28;21154;-73
2021/10/31 08:41:21;;;;;;;1.60;1.10;;;13.00;98.20;;;;;;5000836;28;20471;-72
2021/10/31 08:43:48;;;;;;;1.60;1.10;;;13.20;98.20;;;;;;5001530;28;20483;-74
2021/10/31 08:46:17;;;;;;;1.60;1.10;;;13.30;98.20;;;;;;5002784;28;20467;-74
2021/10/31 08:48:44;;;;;;;1.60;1.00;;;13.40;98.20;;;;;;4999872;28;20495;-73
2021/10/31 08:51:11;;;;;;;1.57;1.00;;;13.50;98.20;;;;;;5004917;28;20471;-73
2021/10/31 08:53:39;;;;;;;2.13;1.93;;;13.70;98.20;;;;;;5007231;28;20464;-73
2021/10/31 08:56:11;;;;;;;1.60;1.07;;;13.70;98.20;;;;;;5006440;28;20508;-74
2021/10/31 08:58:38;;;;;;;1.57;1.00;;;13.80;98.20;;;;;;5003006;28;20487;-73
2021/10/31 09:01:05;;;;;;;1.60;1.10;;;13.80;98.20;;;;;;5006100;28;20957;-74
2021/10/31 09:03:32;;;;;;;1.53;1.00;;;13.80;98.20;;;;;;5007254;28;20460;-73
2021/10/31 09:06:00;;;;;;;1.50;1.00;;;13.80;98.20;;;;;;5000807;28;20556;-73
2021/10/31 09:08:27;;;;;;;1.57;1.00;;;13.80;98.20;;;;;;5005645;28;20487;-74
2021/10/31 09:10:55;;;;;;;1.57;1.10;;;13.80;98.20;;;;;;5008361;28;20465;-74
2021/10/31 09:13:24;;;;;;;1.53;1.00;;;13.90;98.20;;;;;;5006860;28;20555;-74
2021/10/31 09:15:52;;;;;;;5.73;2.40;;;14.00;98.20;;;;;;5006293;28;20577;-74
2021/10/31 09:18:20;;;;;;;1.60;1.00;;;14.10;98.20;;;;;;5000463;28;20559;-74
2021/10/31 09:20:47;;;;;;;1.57;1.00;;;14.20;98.20;;;;;;5006451;28;20474;-76
2021/10/31 09:23:15;;;;;;;1.53;1.00;;;14.30;98.20;;;;;;5009229;28;20562;-76
2021/10/31 09:25:43;;;;;;;1.53;1.00;;;14.40;98.20;;;;;;5005436;28;20851;-74
2021/10/31 09:28:11;;;;;;;1.60;1.00;;;14.40;98.20;;;;;;5002550;28;21122;-74
2021/10/31 09:30:41;;;;;;;1.53;1.00;;;14.50;98.20;;;;;;5003923;28;20472;-75
2021/10/31 09:33:10;;;;;;;1.60;1.00;;;14.50;98.20;;;;;;5006283;28;20897;-74
2021/10/31 09:35:43;;;;;;;1.60;1.00;;;14.60;98.20;;;;;;5007730;28;20462;-74
2021/10/31 09:38:12;;;;;;;1.57;0.90;;;14.70;98.20;;;;;;5010525;28;20494;-74
2021/10/31 09:40:39;;;;;;;1.57;1.00;;;14.70;98.20;;;;;;5005225;28;21554;-75
2021/10/31 09:43:15;;;;;;;1.57;1.00;;;14.80;98.20;;;;;;5010217;28;20460;-75
2021/10/31 09:45:44;;;;;;;1.53;1.00;;;14.80;98.20;;;;;;5008395;28;20578;-74
2021/10/31 09:48:17;;;;;;;2.03;1.83;;;14.80;98.20;;;;;;5009461;28;20542;-76
2021/10/31 09:50:50;;;;;;;1.57;1.00;;;14.80;98.20;;;;;;5008698;28;20529;-75
2021/10/31 09:53:19;;;;;;;1.60;0.90;;;14.80;98.20;;;;;;5009586;28;20464;-75
2021/10/31 09:55:48;;;;;;;1.50;1.00;;;14.80;98.20;;;;;;5010594;28;20470;-75
2021/10/31 09:58:21;;;;;;;1.57;1.00;;;14.80;98.20;;;;;;5008225;28;20498;-73
2021/10/31 10:00:51;;;;;;;1.60;1.00;;;14.90;98.20;;;;;;5006268;28;20511;-77
2021/10/31 10:03:25;;;;;;;1.60;1.00;;;14.90;98.20;;;;;;5007195;28;20481;-75
2021/10/31 10:06:17;;;;;;;1.60;1.00;;;15.00;98.20;;;;;;5008657;28;20551;-74
2021/10/31 10:08:59;;;;;;;1.53;1.00;;;15.00;98.20;;;;;;5002262;28;20484;-73
2021/10/31 10:11:26;;;;;;;1.60;1.23;;;15.00;98.20;;;;;;5009224;28;20459;-73
2021/10/31 10:13:54;;;;;;;1.60;0.90;;;15.10;98.20;;;;;;5010209;28;20460;-73
2021/10/31 10:16:28;;;;;;;1.60;1.00;;;15.00;98.20;;;;;;5006599;28;20519;-75
2021/10/31 10:18:55;;;;;;;1.50;1.00;;;15.10;98.20;;;;;;5008572;28;21007;-74
2021/10/31 10:21:24;;;;;;;1.60;1.00;;;15.00;98.20;;;;;;5008539;28;20836;-75
2021/10/31 10:23:54;;;;;;;1.57;1.00;;;15.00;98.20;;;;;;5009333;28;20894;-75
2021/10/31 10:26:26;;;;;;;1.60;1.20;;;15.00;98.20;;;;;;5007914;28;20464;-75
2021/10/31 10:28:57;;;;;;;1.57;1.00;;;15.10;98.20;;;;;;5009359;28;20933;-74
2021/10/31 10:31:27;;;;;;;1.57;0.93;;;15.10;98.20;;;;;;4997557;28;20468;-75
2021/10/31 10:33:54;;;;;;;1.57;1.00;;;15.20;98.20;;;;;;5006273;28;20464;-74
2021/10/31 10:36:23;;;;;;;1.50;0.90;;;15.30;98.20;;;;;;5009311;28;20487;-72
2021/10/31 10:39:01;;;;;;;1.53;1.00;;;15.40;98.20;;;;;;5006262;28;21034;-73
2021/10/31 10:41:43;;;;;;;1.57;1.00;;;15.50;98.20;;;;;;5009004;28;20989;-73
2021/10/31 10:44:20;;;;;;;1.50;1.00;;;15.60;98.20;;;;;;5006633;28;20888;-74
2021/10/31 10:46:51;;;;;;;1.57;1.00;;;15.70;98.20;;;;;;5008748;28;20464;-75
2021/10/31 10:49:20;;;;;;;1.53;1.00;;;15.90;98.20;;;;;;5002162;28;20499;-74
2021/10/31 10:52:06;;;;;;;1.50;1.00;;;15.90;98.20;;;;;;5000937;28;20471;-73
2021/10/31 10:54:34;;;;;;;1.50;1.00;;;16.00;98.20;;;;;;5005369;28;20912;-73
2021/10/31 10:57:02;;;;;;;3.00;1.00;;;16.00;98.20;;;;;;5008386;28;20515;-74
2021/10/31 10:59:30;;;;;;;1.57;1.00;;;16.10;98.20;;;;;;5009223;28;20496;-74
2021/10/31 11:02:16;;;;;;;1.57;1.00;;;16.20;98.20;;;;;;5009213;28;20955;-74
2021/10/31 11:04:45;;;;;;;1.50;0.97;;;16.30;98.20;;;;;;5009116;28;21141;-74
2021/10/31 11:07:14;;;;;;;1.50;1.00;;;16.30;98.20;;;;;;4999073;28;20476;-74
2021/10/31 11:09:46;;;;;;;1.57;0.90;;;16.30;98.20;;;;;;5007656;28;20491;-75
2021/10/31 11:12:27;;;;;;;1.60;1.10;;;16.30;98.20;;;;;;5008862;28;20546;-73
2021/10/31 11:14:56;;;;;;;1.53;1.00;;;16.30;98.20;;;;;;5003174;28;20468;-74
2021/10/31 11:17:25;;;;;;;1.57;0.90;;;16.30;98.20;;;;;;5001216;28;20497;-74
2021/10/31 11:19:53;;;;;;;1.60;0.90;;;16.40;98.20;;;;;;5004989;28;20685;-73
2021/10/31 11:22:21;;;;;;;1.57;1.00;;;16.50;98.20;;;;;;5001561;28;20472;-74
2021/10/31 11:24:49;;;;;;;1.50;0.93;;;16.50;98.20;;;;;;5005778;28;20464;-73
2021/10/31 11:27:18;;;;;;;1.57;1.00;;;16.50;98.20;;;;;;5001350;28;20491;-74
2021/10/31 11:29:46;;;;;;;1.53;1.00;;;16.50;98.20;;;;;;5002357;28;20563;-72
2021/10/31 11:32:14;;;;;;;1.53;1.00;;;16.60;98.20;;;;;;5000959;28;20500;-73
2021/10/31 11:34:44;;;;;;;1.60;1.00;;;16.60;98.20;;;;;;5007508;28;20468;-73
2021/10/31 11:37:13;;;;;;;1.53;0.90;;;16.60;98.20;;;;;;5005359;28;20553;-75
2021/10/31 11:39:42;;;;;;;1.57;0.90;;;16.60;98.20;;;;;;5007423;28;20468;-73
2021/10/31 11:42:09;;;;;;;1.57;1.00;;;16.70;98.20;;;;;;5007812;28;20496;-74
2021/10/31 11:45:01;;;;;;;1.50;1.00;;;16.70;98.20;;;;;;5008751;28;20460;-74
2021/10/31 11:47:30;;;;;;;1.60;1.00;;;16.80;98.20;;;;;;5006096;28;20498;-73
2021/10/31 11:50:06;;;;;;;1.53;0.90;;;16.80;98.20;;;;;;5005352;28;20478;-74
2021/10/31 11:52:55;;;;;;;1.53;1.00;;;16.80;98.20;;;;;;5008157;28;20566;-74
2021/10/31 11:55:41;;;;;;;1.53;1.00;;;16.80;98.20;;;;;;5004918;28;20456;-74
2021/10/31 11:58:53;;;;;;;1.53;1.00;;;16.80;98.20;;;;;;4994558;28;20502;-75
2021/10/31 12:01:36;;;;;;;1.57;1.00;;;16.80;98.20;;;;;;5001097;28;20468;-73
2021/10/31 12:04:07;;;;;;;1.53;0.90;;;16.80;98.20;;;;;;5005152;28;20464;-75
2021/10/31 12:06:48;;;;;;;1.50;0.97;;;16.90;98.20;;;;;;5006692;28;20484;-74
2021/10/31 12:09:23;;;;;;;1.53;0.90;;;16.90;98.20;;;;;;5008139;28;20492;-73
2021/10/31 12:12:16;;;;;;;1.53;0.90;;;16.90;98.20;;;;;;5001946;28;20511;-73
2021/10/31 12:14:58;;;;;;;1.50;1.00;;;16.90;98.20;;;;;;5000984;28;20555;-73
2021/10/31 12:17:30;;;;;;;1.80;1.47;;;16.90;98.20;;;;;;5003915;28;20491;-73
2021/10/31 12:19:57;;;;;;;1.60;1.10;;;16.90;98.20;;;;;;5000369;28;20472;-72
2021/10/31 12:22:37;;;;;;;1.57;0.90;;;16.90;98.20;;;;;;5001926;28;20472;-73
2021/10/31 12:25:07;;;;;;;1.53;1.00;;;16.90;98.20;;;;;;5006540;28;20993;-72
2021/10/31 12:27:45;;;;;;;1.50;0.90;;;17.00;98.20;;;;;;5005546;28;20504;-72
2021/10/31 12:30:40;;;;;;;1.57;0.90;;;17.00;98.20;;;;;;5005354;28;20642;-71
2021/10/31 12:33:10;;;;;;;1.60;1.00;;;17.00;98.20;;;;;;4990515;28;20472;-73
2021/10/31 12:35:38;;;;;;;1.50;0.90;;;17.10;98.20;;;;;;5001407;28;20514;-73
2021/10/31 12:38:34;;;;;;;1.60;1.00;;;17.10;98.20;;;;;;5003186;28;20523;-72
2021/10/31 12:41:24;;;;;;;1.53;0.90;;;17.10;98.20;;;;;;5006088;28;20507;-72
2021/10/31 12:43:56;;;;;;;1.53;0.97;;;17.10;98.20;;;;;;5004923;28;20484;-72
2021/10/31 12:46:26;;;;;;;2.30;2.10;;;17.10;98.20;;;;;;5011272;28;20471;-72
2021/10/31 12:48:55;;;;;;;1.57;0.90;;;17.20;98.20;;;;;;5011113;28;20479;-73
2021/10/31 12:51:53;;;;;;;1.50;1.00;;;17.20;98.20;;;;;;5009179;28;20966;-73
2021/10/31 12:54:24;;;;;;;1.53;1.00;;;17.20;98.20;;;;;;5010458;28;20503;-73
2021/10/31 12:56:53;;;;;;;1.50;0.90;;;17.20;98.20;;;;;;5011183;28;20562;-74
2021/10/31 12:59:20;;;;;;;1.57;1.07;;;17.10;98.20;;;;;;5010018;28;21274;-71
2021/10/31 13:01:48;;;;;;;1.50;1.00;;;17.10;98.20;;;;;;5011038;28;20467;-73
2021/10/31 13:04:18;;;;;;;1.57;0.93;;;17.10;98.20;;;;;;5005428;28;20476;-73